createdAt,value
2018-01-26T00:01:13.600Z,8.10
2018-01-26T00:03:43.051Z,8.10
2018-01-26T00:06:12.114Z,8.10
2018-01-26T00:08:40.404Z,8.10
2018-01-26T00:11:08.724Z,8.10
2018-01-26T00:13:37.800Z,8.10
2018-01-26T00:16:06.875Z,8.10
2018-01-26T00:18:35.939Z,8.10
2018-01-26T00:21:05.485Z,8.10
2018-01-26T00:23:33.782Z,8.10
2018-01-26T00:26:02.841Z,8.10
2018-01-26T00:28:31.920Z,8.10
2018-01-26T00:31:01.636Z,8.10
2018-01-26T00:33:29.916Z,8.20
2018-01-26T00:35:58.199Z,8.20
2018-01-26T00:38:27.544Z,8.20
2018-01-26T00:40:55.869Z,8.20
2018-01-26T00:43:24.204Z,8.10
2018-01-26T00:45:52.521Z,8.10
2018-01-26T00:48:20.829Z,8.00
2018-01-26T00:50:49.748Z,8.00
2018-01-26T00:53:18.179Z,8.00
2018-01-26T00:55:46.649Z,8.10
2018-01-26T00:58:15.048Z,8.00
2018-01-26T01:00:43.336Z,8.00
2018-01-26T01:03:11.629Z,8.10
2018-01-26T01:05:40.181Z,8.10
2018-01-26T01:08:08.477Z,8.20
2018-01-26T01:10:36.788Z,8.20
2018-01-26T01:13:05.111Z,8.10
2018-01-26T01:15:33.964Z,8.00
2018-01-26T01:18:03.003Z,7.80
2018-01-26T01:20:33.175Z,7.80
2018-01-26T01:23:01.485Z,7.80
2018-01-26T01:25:30.182Z,7.70
2018-01-26T01:27:58.494Z,7.70
2018-01-26T01:30:26.792Z,7.80
2018-01-26T01:32:55.108Z,7.70
2018-01-26T01:35:23.389Z,7.70
2018-01-26T01:37:51.858Z,7.70
2018-01-26T01:40:21.084Z,7.70
2018-01-26T01:42:49.458Z,7.70
2018-01-26T01:45:18.320Z,7.70
2018-01-26T01:47:46.624Z,7.70
2018-01-26T01:50:14.924Z,7.90
2018-01-26T01:52:43.251Z,7.80
2018-01-26T01:55:13.363Z,7.70
2018-01-26T01:57:42.577Z,7.60
2018-01-26T02:00:10.864Z,7.60
2018-01-26T02:02:39.420Z,7.60
2018-01-26T02:05:07.887Z,7.60
2018-01-26T02:07:37.832Z,7.50
2018-01-26T02:10:06.420Z,7.50
2018-01-26T02:12:35.211Z,7.50
2018-01-26T02:15:03.536Z,7.50
2018-01-26T02:17:31.817Z,7.50
2018-01-26T02:20:01.341Z,7.50
2018-01-26T02:22:29.627Z,7.50
2018-01-26T02:25:21.371Z,7.50
2018-01-26T02:27:50.420Z,7.50
2018-01-26T02:30:19.512Z,7.50
2018-01-26T02:32:50.307Z,7.40
2018-01-26T02:35:19.416Z,7.40
2018-01-26T02:37:47.747Z,7.40
2018-01-26T02:40:16.805Z,7.50
2018-01-26T02:42:46.603Z,7.50
2018-01-26T02:45:16.241Z,7.50
2018-01-26T02:47:44.784Z,7.40
2018-01-26T02:50:14.677Z,7.40
2018-01-26T02:52:43.030Z,7.40
2018-01-26T02:55:12.619Z,7.30
2018-01-26T02:57:40.931Z,7.30
2018-01-26T03:00:09.997Z,7.40
2018-01-26T03:02:38.308Z,7.30
2018-01-26T03:05:07.025Z,7.50
2018-01-26T03:07:37.409Z,7.50
2018-01-26T03:10:07.350Z,7.50
2018-01-26T03:15:11.161Z,7.40
2018-01-26T03:17:40.262Z,7.40
2018-01-26T03:20:08.547Z,7.40
2018-01-26T03:22:37.686Z,7.30
2018-01-26T03:25:06.544Z,7.20
2018-01-26T03:27:36.537Z,7.20
2018-01-26T03:30:09.731Z,7.20
2018-01-26T03:32:38.216Z,7.20
2018-01-26T03:35:10.700Z,7.20
2018-01-26T03:37:39.027Z,7.20
2018-01-26T03:40:07.808Z,7.20
2018-01-26T03:42:37.775Z,7.10
2018-01-26T03:45:06.452Z,7.20
2018-01-26T03:47:34.751Z,7.30
2018-01-26T03:50:03.744Z,7.50
2018-01-26T03:52:38.119Z,7.50
2018-01-26T03:55:07.948Z,7.30
2018-01-26T03:57:36.251Z,7.30
2018-01-26T04:00:05.932Z,7.20
2018-01-26T04:02:34.809Z,7.20
2018-01-26T04:05:03.156Z,7.20
2018-01-26T04:07:31.480Z,7.20
2018-01-26T04:09:59.794Z,7.20
2018-01-26T04:12:28.099Z,7.20
2018-01-26T04:14:56.451Z,7.10
2018-01-26T04:17:24.742Z,7.10
2018-01-26T04:19:53.028Z,7.10
2018-01-26T04:22:22.465Z,7.10
2018-01-26T04:24:51.531Z,7.10
2018-01-26T04:27:21.645Z,7.10
2018-01-26T04:29:50.308Z,7.00
2018-01-26T04:32:19.187Z,7.10
2018-01-26T04:34:47.466Z,7.00
2018-01-26T04:37:17.653Z,7.00
2018-01-26T04:39:46.090Z,7.00
2018-01-26T04:42:14.408Z,7.00
2018-01-26T04:44:42.716Z,7.00
2018-01-26T04:47:11.030Z,7.00
2018-01-26T04:49:39.317Z,7.10
2018-01-26T04:52:08.395Z,7.10
2018-01-26T04:54:36.707Z,7.10
2018-01-26T04:57:05.037Z,7.10
2018-01-26T04:59:33.329Z,7.10
2018-01-26T05:02:02.451Z,7.10
2018-01-26T05:04:30.746Z,7.00
2018-01-26T05:06:59.997Z,7.10
2018-01-26T05:09:28.307Z,7.10
2018-01-26T05:11:56.600Z,7.00
2018-01-26T05:14:26.812Z,7.00
2018-01-26T05:16:55.151Z,7.00
2018-01-26T05:19:23.450Z,6.90
2018-01-26T05:21:52.648Z,6.90
2018-01-26T05:24:21.195Z,6.90
2018-01-26T05:26:50.297Z,7.00
2018-01-26T05:29:18.599Z,7.00
2018-01-26T05:31:48.167Z,7.00
2018-01-26T05:34:17.488Z,7.00
2018-01-26T05:36:45.787Z,7.00
2018-01-26T05:39:14.128Z,7.00
2018-01-26T05:41:42.428Z,7.00
2018-01-26T05:44:11.699Z,7.00
2018-01-26T05:46:40.034Z,7.00
2018-01-26T05:49:08.330Z,7.00
2018-01-26T05:51:36.721Z,7.00
2018-01-26T05:54:05.040Z,7.00
2018-01-26T05:56:34.117Z,7.00
2018-01-26T05:59:02.437Z,6.90
2018-01-26T06:01:32.585Z,6.90
2018-01-26T06:04:00.880Z,7.00
2018-01-26T06:06:29.239Z,7.00
2018-01-26T06:08:57.589Z,7.00
2018-01-26T06:11:25.892Z,7.00
2018-01-26T06:13:54.949Z,6.90
2018-01-26T06:16:23.269Z,6.90
2018-01-26T06:18:55.273Z,6.90
2018-01-26T06:21:24.336Z,6.90
2018-01-26T06:23:54.108Z,6.90
2018-01-26T06:26:23.211Z,6.90
2018-01-26T06:28:53.258Z,6.90
2018-01-26T06:31:22.364Z,6.90
2018-01-26T06:33:51.140Z,6.90
2018-01-26T06:36:19.559Z,6.80
2018-01-26T06:38:47.880Z,6.90
2018-01-26T06:41:16.259Z,6.80
2018-01-26T06:43:44.602Z,6.90
2018-01-26T06:46:12.903Z,6.80
2018-01-26T06:48:41.227Z,6.80
2018-01-26T06:51:11.368Z,6.80
2018-01-26T06:53:39.688Z,6.80
2018-01-26T06:56:07.981Z,6.80
2018-01-26T06:58:36.348Z,6.80
2018-01-26T07:01:04.645Z,6.80
2018-01-26T07:03:32.955Z,6.80
2018-01-26T07:06:01.301Z,6.80
2018-01-26T07:08:30.385Z,6.80
2018-01-26T07:10:58.737Z,6.80
2018-01-26T07:13:27.069Z,6.80
2018-01-26T07:15:56.143Z,7.00
2018-01-26T07:18:26.256Z,7.00
2018-01-26T07:20:54.593Z,6.90
2018-01-26T07:23:22.894Z,6.90
2018-01-26T07:25:51.221Z,6.90
2018-01-26T07:28:19.511Z,6.90
2018-01-26T07:30:47.848Z,7.00
2018-01-26T07:33:16.137Z,7.00
2018-01-26T07:35:45.994Z,7.00
2018-01-26T07:38:15.067Z,7.00
2018-01-26T07:40:43.392Z,7.00
2018-01-26T07:43:11.672Z,7.00
2018-01-26T07:45:40.761Z,7.00
2018-01-26T07:48:09.079Z,7.00
2018-01-26T07:50:37.529Z,7.00
2018-01-26T07:53:06.242Z,7.00
2018-01-26T07:55:34.568Z,6.90
2018-01-26T07:58:03.865Z,7.00
2018-01-26T08:00:32.228Z,7.00
2018-01-26T08:03:00.537Z,7.00
2018-01-26T08:05:28.893Z,7.00
2018-01-26T08:07:57.213Z,7.00
2018-01-26T08:10:25.509Z,7.00
2018-01-26T08:12:53.827Z,7.10
2018-01-26T08:15:23.038Z,7.20
2018-01-26T08:17:53.788Z,7.10
2018-01-26T08:20:22.913Z,7.10
2018-01-26T08:22:51.911Z,7.10
2018-01-26T08:25:20.659Z,7.20
2018-01-26T08:27:48.959Z,7.30
2018-01-26T08:30:17.945Z,7.30
2018-01-26T08:32:46.243Z,7.40
2018-01-26T08:35:14.577Z,7.40
2018-01-26T08:37:44.163Z,7.40
2018-01-26T08:40:12.504Z,7.30
2018-01-26T08:42:40.852Z,7.20
2018-01-26T08:45:09.584Z,7.40
2018-01-26T08:47:37.949Z,7.40
2018-01-26T08:50:06.253Z,7.30
2018-01-26T08:52:34.623Z,7.40
2018-01-26T08:55:03.192Z,7.40
2018-01-26T08:57:31.480Z,7.40
2018-01-26T08:59:59.801Z,7.40
2018-01-26T09:02:28.108Z,7.50
2018-01-26T09:04:56.472Z,7.60
2018-01-26T09:07:24.772Z,7.70
2018-01-26T09:09:53.087Z,7.90
2018-01-26T09:12:24.062Z,8.10
2018-01-26T09:14:52.693Z,8.30
2018-01-26T09:17:20.996Z,8.90
2018-01-26T09:19:49.291Z,9.30
2018-01-26T09:22:18.365Z,9.80
2018-01-26T09:24:47.615Z,9.60
2018-01-26T09:27:15.967Z,9.60
2018-01-26T09:29:44.286Z,9.40
2018-01-26T09:32:12.586Z,9.50
2018-01-26T09:34:41.752Z,9.60
2018-01-26T09:37:10.166Z,9.60
2018-01-26T09:39:38.538Z,9.70
2018-01-26T09:42:09.993Z,9.90
2018-01-26T09:44:38.317Z,10.10
2018-01-26T09:47:06.727Z,10.10
2018-01-26T09:49:35.795Z,10.80
2018-01-26T09:52:04.915Z,10.70
2018-01-26T09:54:33.242Z,10.60
2018-01-26T09:57:01.531Z,10.70
2018-01-26T09:59:29.858Z,11.10
2018-01-26T10:01:58.166Z,11.70
2018-01-26T10:04:27.300Z,11.90
2018-01-26T10:06:55.643Z,11.90
2018-01-26T10:09:23.970Z,12.30
2018-01-26T10:11:52.291Z,12.20
2018-01-26T10:14:21.376Z,12.10
2018-01-26T10:16:49.699Z,12.00
2018-01-26T10:19:19.595Z,11.40
2018-01-26T10:21:48.910Z,11.00
2018-01-26T10:24:17.214Z,11.00
2018-01-26T10:26:45.636Z,11.00
2018-01-26T10:29:13.980Z,10.90
2018-01-26T10:31:42.295Z,10.70
2018-01-26T10:34:11.375Z,10.50
2018-01-26T10:36:39.674Z,10.50
2018-01-26T10:39:08.003Z,10.40
2018-01-26T10:41:36.307Z,10.40
2018-01-26T10:44:04.633Z,10.40
2018-01-26T10:46:32.986Z,10.30
2018-01-26T10:49:01.283Z,10.20
2018-01-26T10:51:29.654Z,10.20
2018-01-26T10:53:58.043Z,10.10
2018-01-26T10:56:26.427Z,9.90
2018-01-26T10:58:54.736Z,9.90
2018-01-26T11:01:23.060Z,9.90
2018-01-26T11:03:53.259Z,9.70
2018-01-26T11:06:21.576Z,9.70
2018-01-26T11:08:49.967Z,9.70
2018-01-26T11:11:18.351Z,9.70
2018-01-26T11:13:46.665Z,9.60
2018-01-26T11:16:15.384Z,9.60
2018-01-26T11:18:43.663Z,9.60
2018-01-26T11:21:11.979Z,9.80
2018-01-26T11:23:40.318Z,9.90
2018-01-26T11:26:08.643Z,10.20
2018-01-26T11:28:36.956Z,10.30
2018-01-26T11:31:10.032Z,10.70
2018-01-26T11:33:38.307Z,10.70
2018-01-26T11:36:06.633Z,10.90
2018-01-26T11:38:36.412Z,10.80
2018-01-26T11:41:04.776Z,10.80
2018-01-26T11:43:33.143Z,10.60
2018-01-26T11:46:02.524Z,10.30
2018-01-26T11:48:32.325Z,10.10
2018-01-26T11:51:01.621Z,10.10
2018-01-26T11:53:29.940Z,9.90
2018-01-26T11:55:59.039Z,9.60
2018-01-26T11:58:27.349Z,9.60
2018-01-26T12:00:55.652Z,9.50
2018-01-26T12:03:23.968Z,9.40
2018-01-26T12:05:52.283Z,9.30
2018-01-26T12:08:20.592Z,9.30
2018-01-26T12:10:48.891Z,9.30
2018-01-26T12:13:17.236Z,9.30
2018-01-26T12:15:46.612Z,9.20
2018-01-26T12:18:15.688Z,9.10
2018-01-26T12:20:44.744Z,9.10
2018-01-26T12:23:13.101Z,9.10
2018-01-26T12:25:41.454Z,9.10
2018-01-26T12:28:09.765Z,9.10
2018-01-26T12:30:38.117Z,9.10
2018-01-26T12:33:06.450Z,9.00
2018-01-26T12:35:34.774Z,9.10
2018-01-26T12:38:03.103Z,9.10
2018-01-26T12:40:32.380Z,9.10
2018-01-26T12:43:01.082Z,9.10
2018-01-26T12:45:29.511Z,9.20
2018-01-26T12:47:57.833Z,9.20
2018-01-26T12:50:26.927Z,9.30
2018-01-26T12:52:55.338Z,9.30
2018-01-26T12:55:23.704Z,9.30
2018-01-26T12:57:52.065Z,9.20
2018-01-26T13:00:21.195Z,9.30
2018-01-26T13:02:49.511Z,9.30
2018-01-26T13:05:18.807Z,9.30
2018-01-26T13:07:47.463Z,9.20
2018-01-26T13:10:15.776Z,9.20
2018-01-26T13:12:44.089Z,9.20
2018-01-26T13:15:12.397Z,9.20
2018-01-26T13:17:41.479Z,9.00
2018-01-26T13:20:09.852Z,9.00
2018-01-26T13:22:38.189Z,8.90
2018-01-26T13:25:06.524Z,8.90
2018-01-26T13:27:35.612Z,8.80
2018-01-26T13:30:04.723Z,8.80
2018-01-26T13:32:33.026Z,8.80
2018-01-26T13:35:02.540Z,8.80
2018-01-26T13:37:31.290Z,8.80
2018-01-26T13:40:01.139Z,8.80
2018-01-26T13:42:29.423Z,8.80
2018-01-26T13:44:57.729Z,8.90
2018-01-26T13:47:26.051Z,8.80
2018-01-26T13:49:54.352Z,8.80
2018-01-26T13:52:22.648Z,8.80
2018-01-26T13:54:50.948Z,8.70
2018-01-26T13:57:19.682Z,8.80
2018-01-26T13:59:48.147Z,8.70
2018-01-26T14:02:16.657Z,8.80
2018-01-26T14:04:44.917Z,8.70
2018-01-26T14:07:13.250Z,8.80
2018-01-26T14:09:41.557Z,8.80
2018-01-26T14:12:09.868Z,8.80
2018-01-26T14:14:38.630Z,8.80
2018-01-26T14:17:06.944Z,8.80
2018-01-26T14:19:35.300Z,8.80
2018-01-26T14:22:03.598Z,8.80
2018-01-26T14:24:32.878Z,8.80
2018-01-26T14:27:01.172Z,8.80
2018-01-26T14:29:29.907Z,8.80
2018-01-26T14:31:58.207Z,8.80
2018-01-26T14:34:27.460Z,8.80
2018-01-26T14:36:56.944Z,8.90
2018-01-26T14:39:25.503Z,8.80
2018-01-26T14:41:53.839Z,8.80
2018-01-26T14:44:22.168Z,8.80
2018-01-26T14:46:50.466Z,8.80
2018-01-26T14:49:18.800Z,8.80
2018-01-26T14:51:47.129Z,8.70
2018-01-26T14:54:15.444Z,8.80
2018-01-26T14:56:43.767Z,8.80
2018-01-26T14:59:12.064Z,8.80
2018-01-26T15:01:40.392Z,8.70
2018-01-26T15:04:11.540Z,8.70
2018-01-26T15:06:39.862Z,8.70
2018-01-26T15:09:08.197Z,8.70
2018-01-26T15:11:36.504Z,8.60
2018-01-26T15:14:05.642Z,8.50
2018-01-26T15:16:33.933Z,8.40
2018-01-26T15:19:02.551Z,8.50
2018-01-26T15:21:30.906Z,8.40
2018-01-26T15:23:59.314Z,8.40
2018-01-26T15:26:27.663Z,8.40
2018-01-26T15:28:55.949Z,8.40
2018-01-26T15:31:24.267Z,8.40
2018-01-26T15:33:52.584Z,8.40
2018-01-26T15:36:20.906Z,8.40
2018-01-26T15:38:49.196Z,8.40
2018-01-26T15:41:17.560Z,8.30
2018-01-26T15:43:45.851Z,8.30
2018-01-26T15:46:14.165Z,8.30
2018-01-26T15:48:42.476Z,8.20
2018-01-26T15:51:11.532Z,8.20
2018-01-26T15:53:41.468Z,8.20
2018-01-26T15:56:09.761Z,8.20
2018-01-26T15:58:38.083Z,8.10
2018-01-26T16:01:06.402Z,8.10
2018-01-26T16:03:34.712Z,8.10
2018-01-26T16:06:03.047Z,8.10
2018-01-26T16:08:32.152Z,8.00
2018-01-26T16:11:00.452Z,8.00
2018-01-26T16:13:30.551Z,8.00
2018-01-26T16:16:06.620Z,7.90
2018-01-26T16:18:34.907Z,7.90
2018-01-26T16:21:03.936Z,7.90
2018-01-26T16:23:32.237Z,7.90
2018-01-26T16:26:01.694Z,7.90
2018-01-26T16:28:30.070Z,7.90
2018-01-26T16:30:58.396Z,7.90
2018-01-26T16:33:26.707Z,7.90
2018-01-26T16:35:55.780Z,7.80
2018-01-26T16:38:24.948Z,7.80
2018-01-26T16:40:54.064Z,7.80
2018-01-26T16:43:22.393Z,7.80
2018-01-26T16:45:51.475Z,7.80
2018-01-26T16:48:19.840Z,7.80
2018-01-26T16:50:48.140Z,7.80
2018-01-26T16:53:16.467Z,7.80
2018-01-26T16:55:44.772Z,7.80
2018-01-26T16:58:13.087Z,7.80
2018-01-26T17:00:42.180Z,7.80
2018-01-26T17:03:11.262Z,7.80
2018-01-26T17:05:39.594Z,7.80
2018-01-26T17:08:08.007Z,7.80
2018-01-26T17:10:36.339Z,7.80
2018-01-26T17:13:04.680Z,7.70
2018-01-26T17:15:32.996Z,7.70
2018-01-26T17:18:01.313Z,7.70
2018-01-26T17:20:30.840Z,7.70
2018-01-26T17:22:59.125Z,7.60
2018-01-26T17:25:27.446Z,7.70
2018-01-26T17:27:55.727Z,7.60
2018-01-26T17:30:24.047Z,7.60
2018-01-26T17:32:53.184Z,7.60
2018-01-26T17:35:22.185Z,7.60
2018-01-26T17:37:50.501Z,7.60
2018-01-26T17:40:19.556Z,7.60
2018-01-26T17:42:47.855Z,7.60
2018-01-26T17:45:16.333Z,7.60
2018-01-26T17:47:45.737Z,7.60
2018-01-26T17:50:14.033Z,7.60
2018-01-26T17:52:42.436Z,7.60
2018-01-26T17:55:10.796Z,7.60
2018-01-26T17:57:39.089Z,7.60
2018-01-26T18:00:08.187Z,7.60
2018-01-26T18:02:36.522Z,7.60
2018-01-26T18:05:04.812Z,7.60
2018-01-26T18:07:33.132Z,7.60
2018-01-26T18:10:01.457Z,7.60
2018-01-26T18:12:30.561Z,7.60
2018-01-26T18:14:58.894Z,7.60
2018-01-26T18:17:27.953Z,7.60
2018-01-26T18:19:56.273Z,7.60
2018-01-26T18:22:24.584Z,7.60
2018-01-26T18:24:52.912Z,7.60
2018-01-26T18:27:21.245Z,7.60
2018-01-26T18:29:49.688Z,7.60
2018-01-26T18:32:17.990Z,7.60
2018-01-26T18:34:47.080Z,7.60
2018-01-26T18:37:15.370Z,7.60
2018-01-26T18:39:43.705Z,7.60
2018-01-26T18:42:12.017Z,7.60
2018-01-26T18:44:41.175Z,7.60
2018-01-26T18:47:10.279Z,7.60
2018-01-26T18:49:38.601Z,7.60
2018-01-26T18:52:07.688Z,7.60
2018-01-26T18:54:36.028Z,7.60
2018-01-26T18:57:04.314Z,7.60
2018-01-26T18:59:32.645Z,7.60
2018-01-26T19:02:00.979Z,7.50
2018-01-26T19:04:29.316Z,7.50
2018-01-26T19:06:57.641Z,7.40
2018-01-26T19:09:25.951Z,7.40
2018-01-26T19:11:54.270Z,7.40
2018-01-26T19:14:22.592Z,7.40
2018-01-26T19:16:51.000Z,7.40
2018-01-26T19:19:19.304Z,7.40
2018-01-26T19:21:47.726Z,7.40
2018-01-26T19:24:17.009Z,7.40
2018-01-26T19:26:46.655Z,7.40
2018-01-26T19:29:15.914Z,7.40
2018-01-26T19:31:45.000Z,7.40
2018-01-26T19:34:13.294Z,7.40
2018-01-26T19:36:41.626Z,7.30
2018-01-26T19:39:10.017Z,7.30
2018-01-26T19:41:38.309Z,7.30
2018-01-26T19:44:07.404Z,7.20
2018-01-26T19:46:35.700Z,7.20
2018-01-26T19:49:04.865Z,7.20
2018-01-26T19:51:33.215Z,7.10
2018-01-26T19:54:02.333Z,7.10
2018-01-26T19:56:30.693Z,7.00
2018-01-26T19:58:59.013Z,7.00
2018-01-26T20:01:28.068Z,7.00
2018-01-26T20:04:04.549Z,6.90
2018-01-26T20:06:56.240Z,6.90
2018-01-26T20:09:26.367Z,6.90
2018-01-26T20:12:00.355Z,6.90
2018-01-26T20:14:28.661Z,6.80
2018-01-26T20:16:57.010Z,6.70
2018-01-26T20:19:25.332Z,6.70
2018-01-26T20:21:53.740Z,6.60
2018-01-26T20:24:22.049Z,6.60
2018-01-26T20:26:50.426Z,6.50
2018-01-26T20:29:18.783Z,6.50
2018-01-26T20:31:47.165Z,6.50
2018-01-26T20:34:16.215Z,6.50
2018-01-26T20:36:45.597Z,6.40
2018-01-26T20:39:13.922Z,6.40
2018-01-26T20:41:42.224Z,6.40
2018-01-26T20:44:10.950Z,6.40
2018-01-26T20:46:39.246Z,6.30
2018-01-26T20:49:07.552Z,6.30
2018-01-26T20:51:35.860Z,6.30
2018-01-26T20:54:04.219Z,6.30
2018-01-26T20:56:32.531Z,6.30
2018-01-26T20:59:00.827Z,6.30
2018-01-26T21:01:29.144Z,6.30
2018-01-26T21:03:57.473Z,6.30
2018-01-26T21:06:25.812Z,6.30
2018-01-26T21:08:54.108Z,6.20
2018-01-26T21:11:23.247Z,6.10
2018-01-26T21:13:51.565Z,6.10
2018-01-26T21:16:20.044Z,6.10
2018-01-26T21:18:49.130Z,6.00
2018-01-26T21:21:17.429Z,6.00
2018-01-26T21:23:46.520Z,6.00
2018-01-26T21:26:15.216Z,6.00
2018-01-26T21:28:43.552Z,6.00
2018-01-26T21:31:11.894Z,6.00
2018-01-26T21:33:40.265Z,6.00
2018-01-26T21:36:08.604Z,6.00
2018-01-26T21:38:37.919Z,5.90
2018-01-26T21:41:06.298Z,5.90
2018-01-26T21:43:34.598Z,5.90
2018-01-26T21:46:03.702Z,5.90
2018-01-26T21:48:32.036Z,5.90
2018-01-26T21:51:00.378Z,5.90
2018-01-26T21:53:28.708Z,5.90
2018-01-26T21:55:57.499Z,5.80
2018-01-26T21:58:25.794Z,5.80
2018-01-26T22:00:54.106Z,5.80
2018-01-26T22:03:23.448Z,5.80
2018-01-26T22:05:51.761Z,5.80
2018-01-26T22:08:20.058Z,5.80
2018-01-26T22:10:48.384Z,5.80
2018-01-26T22:13:16.694Z,5.80
2018-01-26T22:15:44.980Z,5.70
2018-01-26T22:18:14.078Z,5.70
2018-01-26T22:20:42.422Z,5.70
2018-01-26T22:23:10.731Z,5.70
2018-01-26T22:25:39.052Z,5.70
2018-01-26T22:28:07.372Z,5.70
2018-01-26T22:30:35.692Z,5.70
2018-01-26T22:33:04.783Z,5.60
2018-01-26T22:35:33.143Z,5.60
2018-01-26T22:38:01.443Z,5.70
2018-01-26T22:40:29.761Z,5.70
2018-01-26T22:42:58.081Z,5.70
2018-01-26T22:45:26.523Z,5.70
2018-01-26T22:47:54.852Z,5.60
2018-01-26T22:50:23.173Z,5.70
2018-01-26T22:52:51.463Z,5.60
2018-01-26T22:55:20.577Z,5.70
2018-01-26T22:57:48.871Z,5.60
2018-01-26T23:00:17.213Z,5.60
2018-01-26T23:02:46.383Z,5.70
2018-01-26T23:05:15.468Z,5.60
2018-01-26T23:07:44.857Z,5.60
2018-01-26T23:10:13.174Z,5.70
2018-01-26T23:12:42.238Z,5.60
2018-01-26T23:15:11.321Z,5.60
2018-01-26T23:17:39.658Z,5.60
2018-01-26T23:20:08.165Z,5.60
2018-01-26T23:22:36.529Z,5.60
2018-01-26T23:25:04.821Z,5.60
2018-01-26T23:27:33.140Z,5.60
2018-01-26T23:30:02.249Z,5.60
2018-01-26T23:32:30.540Z,5.60
2018-01-26T23:34:58.868Z,5.60
2018-01-26T23:37:27.164Z,5.60
2018-01-26T23:39:55.457Z,5.50
2018-01-26T23:42:23.780Z,5.50
2018-01-26T23:44:52.099Z,5.60
2018-01-26T23:47:20.391Z,5.60
2018-01-26T23:49:49.507Z,5.50
2018-01-26T23:52:17.812Z,5.50
2018-01-26T23:54:47.175Z,5.50
2018-01-26T23:57:16.615Z,5.50
2018-01-26T23:59:44.937Z,5.50
